Terminal Aerodrome Forecast
Issued by NWS New Orleans/Baton Rouge, LA

Home | Current Version | Previous Version | Text Only | Print | Product List | Glossary On
Versions: 1 2 3 4 5 6 7 8 9 10 11 12 13 14 15 16 17
000
FTUS44 KLIX 161100 RRA
TAFBTR
TAF
KBTR 161142Z 1612/1712 00000KT P6SM SKC
     FM161600 VRB03KT P6SM BKN035
     FM161900 VRB03KT P6SM VCTS SCT025CB
      TEMPO 1619/1623 VRB15KT 1SM TSRA BR BKN025CB
     FM170200 VRB03KT P6SM SCT035=

USA.gov is the U.S. government's official web portal to all federal, state and local government web resources and services.